x

Nanakwa Shoal (46181) Weather Station

12:00am - Wed 28th Sep 2016 All times are PDT. -7 hours from GMT.

  • Peak Period 3s
  • Wind
    4mph
  • Sea Temp 52°f
  • Air Temp 49°f
  • Sea Pressure 1026.1mb
  • Nanakwa Shoal
  • Nanakwa Shoal

More Historic Weather Station data

Upgrade to MSW Pro to gain access to the past 30 days of data for over 8000 Wavebouys and Weather Stations around the globe.

Join Pro

Comparision Forecast

View Surf forecast
   
Wed 09/28 12:00am  -  3s 4
mph
1026.1mb 52f 49f
Tue 09/27 11:00pm 0.3ft 4s 2 4 mph 1026.2mb 52f 49f
10:00pm  -  3s 2 4 mph 1026.4mb 52f 50f
9:00pm  -  3s 2
mph
1026.4mb 53f 51f
8:00pm  -  3s  -  2 mph 1026.5mb 53f 51f
7:00pm 0.3ft 2s  -  2 mph 1026.4mb 54f 53f
6:00pm 0.3ft 3s 2 4 mph 1026.7mb 54f 54f
5:00pm 0.3ft 2s 7 9 mph 1027mb 55f 54f
4:00pm 0.3ft 3s 11 13 mph 1027.2mb 55f 54f
3:00pm 0.7ft 2s 9 11 mph 1027.2mb 55f 53f
2:00pm 0.7ft 2s 11 13 mph 1026.9mb 54f 54f
1:00pm 0.7ft 2s 13 18 mph 1026.6mb 54f 53f
12:00pm 0.3ft 2s 11 16 mph 1026.6mb 55f 53f
11:00am 0.3ft 2s 7
mph
1026.6mb 55f 53f
10:00am 0.7ft 2s 13 18 mph 1026.2mb 54f 52f
9:00am 0.3ft 2s 13 16 mph 1025.8mb 54f 51f
8:00am 0.7ft 2s 11 13 mph 1025.5mb 54f 51f
7:00am 0.7ft 2s 13 18 mph 1025.1mb 54f 51f
6:00am 0.7ft 2s 13 16 mph 1024.8mb 54f 51f
5:00am 0.7ft 2s 16 18 mph 1024.4mb 54f 52f
4:00am 0.7ft 2s 11 13 mph 1023.9mb 54f 52f
3:00am 0.7ft 2s 11 16 mph 1023.3mb 54f 52f
2:00am 0.7ft 3s 13 18 mph 1022.4mb 54f 52f
1:00am 1ft 3s 20 25 mph 1021.2mb 54f 53f
12:00am 1ft 3s 16 18 mph 1020.5mb 55f 53f
Mon 09/26 11:00pm 1ft 3s 11 16 mph 1019.9mb 55f 53f
10:00pm 1ft 3s 16 22 mph 1019mb 55f 54f
9:00pm 1ft 3s 16 18 mph 1018.1mb 55f 54f
8:00pm 1ft 3s 16 18 mph 1017.2mb 55f 55f
7:00pm 1ft 2s 20 27 mph 1016.1mb 54f 55f
6:00pm 1ft 3s 18 22 mph 1015.5mb 55f 56f
5:00pm 1ft 3s 18 25 mph 1014.8mb 54f 57f
4:00pm 1ft 3s 18 22 mph 1013.9mb 54f 57f
3:00pm 0.7ft 2s 16 22 mph 1013mb 54f 56f
2:00pm 0.7ft 2s 18 22 mph 1012.2mb 54f 56f
1:00pm 0.7ft 2s 16 22 mph 1011.4mb 54f 56f
12:00pm 0.7ft 2s 18 22 mph 1010.3mb 54f 55f
11:00am 0.7ft 2s 13 18 mph 1010mb 55f 56f
10:00am 1ft 3s 18 20 mph 1009.5mb 55f 56f
9:00am 0.7ft 2s 16 22 mph 1008.6mb 55f 57f
8:00am 0.7ft 2s 13 18 mph 1008.5mb 55f 58f
7:00am 0.7ft 2s 20 25 mph 1009.2mb 55f 57f
6:00am 0.7ft 2s 20 25 mph 1010mb 54f 57f
5:00am 1ft 2s 22 27 mph 1010.2mb 54f 58f
4:00am 1.3ft 2s 20 27 mph 1010.3mb 55f 59f
3:00am 0.7ft 2s 18 27 mph 1010.5mb 55f 60f
2:00am 0.7ft 3s 13 20 mph 1010.6mb 55f 58f
1:00am 0.7ft 2s 13 16 mph 1010.7mb 55f 59f
12:00am 0.7ft 2s 18 27 mph 1011.2mb 55f 58f
Sun 09/25 11:00pm 0.7ft 3s 16 20 mph 1011.9mb 55f 58f
10:00pm 0.7ft 2s 16 20 mph 1013mb 55f 59f
9:00pm 0.7ft 2s 18 25 mph 1013.9mb 55f 59f
8:00pm 0.7ft 2s 18 22 mph 1014.5mb 55f 59f
7:00pm 0.3ft 2s 18 25 mph 1014.9mb 55f 58f
6:00pm  -  4s 7 13 mph 1015.9mb 55f 56f
5:00pm  -  4s 2 4 mph 1016.7mb 55f 53f
4:00pm 0.3ft 4s 2 4 mph 1018mb 55f 52f
3:00pm  -  3s 2
mph
1018.4mb 55f 52f
2:00pm 0.3ft 3s 4 7 mph 1018.6mb 55f 52f
1:00pm  -  3s 4
mph
1019mb 54f 52f
12:00pm  -  3s  -  mph 1019.7mb 54f 51f
11:00am  -  3s  -  2 mph 1020.1mb 54f 50f
10:00am  -  4s 2
mph
1020.1mb 54f 51f
9:00am 0.3ft 4s 4
mph
1019.7mb 54f 51f
8:00am 0.3ft 4s 2
mph
1019mb 55f 50f
7:00am 0.3ft 2s  -  2 mph 1018.8mb 55f 50f
6:00am 0.3ft 2s  -  mph 1018.6mb 54f 50f
5:00am 0.3ft 2s 4 7 mph 1018.1mb 54f 50f
4:00am 0.3ft 2s 2 4 mph 1018.1mb 54f 50f
3:00am 0.3ft 2s 9 11 mph 1017.8mb 54f 50f
2:00am 0.7ft 2s 9 11 mph 1018.2mb 54f 50f
1:00am 0.7ft 2s 13 18 mph 1018.8mb 54f 51f
12:00am 0.3ft 2s 9 13 mph 1019.2mb 54f 51f
Sat 09/24 11:00pm  -  4s 11 16 mph 1019.1mb 54f 51f
10:00pm  -  3s 7 9 mph 1019.5mb 55f 51f
9:00pm  -  3s 7 9 mph 1019.7mb 55f 52f
8:00pm  -  3s 4
mph
1020.3mb 55f 52f
7:00pm  -  3s  -  mph 1021mb 55f 52f
6:00pm  -  3s  -  2 mph 1021.7mb 55f 53f
5:00pm  -  3s 2 4 mph 1022.6mb 55f 53f
4:00pm 0.3ft 2s  -  2 mph 1023mb 55f 53f
3:00pm 0.3ft 2s 4 7 mph 1023.2mb 55f 53f
2:00pm 0.3ft 3s  -  2 mph 1023.5mb 55f 54f
1:00pm 0.3ft 2s  -  2 mph 1023.6mb 55f 54f
12:00pm 0.3ft 2s 4
mph
1023.2mb 55f 53f
11:00am 0.3ft 2s 2 4 mph 1023.4mb 55f 53f
10:00am  -  3s  -  mph 1023.2mb 55f 53f
9:00am 0.3ft 2s 4
mph
1022.9mb 55f 52f